Pelagos — SZSW — position and weather

sailwx.info

Track history (hours):
 
Tides and Currents Weather Stations Pressure Air Temp Water Temp Dewpoint Dewpoint Depression Visibility Wind Speed Wind Dir Waves Ship Positions

Pelagos

Last reported at 2017-May-24 05:28 UTC. Time now 2017-May-24 05:58 UTC.
Position N 60°05' E 027°21'.

Length 249 m; draft 14 m.

Type: Ship (hazmat cat C). MMSI: 240335000.

Date/timePositionNaut miles runAvg speedWind from/ knotsBaromVisibWave heightAir tempDewpointWater temp
2017-May-24 05:28N 60°05' E 027°21'612.0
2017-May-24 04:59N 60°08' E 027°31'811.8
2017-May-24 04:19N 60°12' E 027°45'411.5
2017-May-24 04:00N 60°11' E 027°52'612.3
2017-May-24 03:30N 60°10' E 028°04'612.2
2017-May-24 03:00N 60°08' E 028°16'611.5
2017-May-24 02:30N 60°08' E 028°27'612.2
2017-May-24 02:00N 60°10' E 028°39'4 7.3
2017-May-24 01:30N 60°12' E 028°45'5 9.1
2017-May-24 00:59N 60°17' E 028°46'4 7.5
2017-May-24 00:30N 60°20' E 028°42'0 0.0
2017-May-22 22:14N 60°20' E 028°41'1 4.8
2017-May-22 22:00N 60°19' E 028°43'4 8.9
2017-May-22 21:30N 60°16' E 028°48'5 9.0
2017-May-22 21:00N 60°11' E 028°44'713.5
2017-May-22 20:31N 60°08' E 028°33'611.6
2017-May-22 20:00N 60°05' E 028°23'4 7.4
2017-May-22 19:30N 60°07' E 028°16'4 8.6
2017-May-22 19:01N 60°08' E 028°08'4 8.5
2017-May-22 18:31N 60°09' E 027°59'4 8.6
2017-May-22 18:00N 60°10' E 027°51'4 8.3
2017-May-22 17:30N 60°10' E 027°43'4 8.8
2017-May-22 17:01N 60°07' E 027°35'5 8.9
2017-May-22 16:30N 60°05' E 027°27'4 7.7
2017-May-22 16:00N 60°03' E 027°21'3 6.4
2017-May-22 15:31N 60°02' E 027°15'3 6.4
2017-May-22 15:00N 59°60' E 027°10'6 5.9
2017-May-22 14:00N 59°58' E 026°59'3 6.3
2017-May-22 13:30N 59°59' E 026°52'3 6.2
2017-May-22 13:01N 59°59' E 026°46'3 6.3
2017-May-22 12:31N 59°59' E 026°40'3 6.6
2017-May-22 12:00N 59°59' E 026°34'4 8.9
2017-May-22 11:31N 59°57' E 026°25'5 9.1
2017-May-22 11:00N 59°56' E 026°16'5 9.0
2017-May-22 10:26N 59°55' E 026°06'4 9.0
2017-May-22 10:00N 59°54' E 025°59'4 9.0
2017-May-22 09:31N 59°53' E 025°50'5 9.1
2017-May-22 09:00N 59°51' E 025°42'6 9.1
2017-May-22 08:22N 59°50' E 025°30'3 9.1
2017-May-22 08:00N 59°50' E 025°24'8 9.3
2017-May-22 07:06N 59°48' E 025°07'4 9.2
2017-May-22 06:41N 59°47' E 024°60'17 7.7
2017-May-22 04:25N 59°44' E 024°26'4 8.9
2017-May-22 03:59N 59°43' E 024°19'5 9.1
2017-May-22 03:25N 59°41' E 024°09'4 9.3
2017-May-22 03:00N 59°40' E 024°02'4 8.9
2017-May-22 02:31N 59°38' E 023°54'5 9.0
2017-May-22 02:00N 59°37' E 023°45'5 9.2
2017-May-22 01:31N 59°35' E 023°37'5 9.5
2017-May-22 01:01N 59°33' E 023°28'5 9.3
2017-May-22 00:31N 59°32' E 023°20'5 9.3
2017-May-22 00:01N 59°30' E 023°11'5 9.3
2017-May-21 23:30N 59°29' E 023°02'5 9.5
2017-May-21 23:01N 59°27' E 022°53'5 9.4
2017-May-21 22:30N 59°26' E 022°45'5 9.3
2017-May-21 22:01N 59°24' E 022°37'5 9.3
2017-May-21 21:31N 59°21' E 022°29'14 8.9
2017-May-21 19:55N 59°13' E 022°07'194 8.4
2017-May-20 20:50N 56°27' E 018°57'4 8.6
2017-May-20 20:20N 56°23' E 018°54'10 8.4
2017-May-20 19:08N 56°16' E 018°41'1 8.9
2017-May-20 18:59N 56°15' E 018°39'35 8.7
2017-May-20 14:57N 55°57' E 017°45'4 8.5
2017-May-20 14:31N 55°55' E 017°39'13 8.6
2017-May-20 12:58N 55°52' E 017°16'4 8.8
2017-May-20 12:31N 55°51' E 017°09'4 8.8
2017-May-20 12:00N 55°49' E 017°02'4 9.0
2017-May-20 11:31N 55°48' E 016°54'4 8.9
2017-May-20 11:01N 55°47' E 016°46'4 8.7
2017-May-20 10:31N 55°46' E 016°39'4 8.8
2017-May-20 10:01N 55°45' E 016°31'4 8.8
2017-May-20 09:31N 55°44' E 016°24'4 8.7
2017-May-20 09:01N 55°43' E 016°16'4 8.9
2017-May-20 08:31N 55°42' E 016°09'4 8.8
2017-May-20 08:01N 55°41' E 016°01'4 8.8
2017-May-20 07:31N 55°40' E 015°54'4 8.8
2017-May-20 07:00N 55°39' E 015°46'4 8.7
2017-May-20 06:31N 55°37' E 015°39'4 8.9
2017-May-20 06:01N 55°36' E 015°31'4 8.9
2017-May-20 05:31N 55°34' E 015°24'4 8.9
2017-May-20 05:01N 55°33' E 015°16'4 8.8
2017-May-20 04:31N 55°31' E 015°09'4 8.9
2017-May-20 04:01N 55°30' E 015°02'4 8.8
2017-May-20 03:31N 55°28' E 014°55'4 8.6
2017-May-20 03:00N 55°26' E 014°48'4 8.4
2017-May-20 02:30N 55°24' E 014°41'4 8.5
2017-May-20 02:01N 55°21' E 014°36'5 9.1
2017-May-20 01:30N 55°18' E 014°30'5 9.6
2017-May-20 01:00N 55°14' E 014°25'5 9.7
2017-May-20 00:31N 55°11' E 014°19'5 8.9
2017-May-20 00:00N 55°10' E 014°12'5 9.1
2017-May-19 23:26N 55°10' E 014°03'4 8.9
2017-May-19 23:00N 55°10' E 013°56'5 8.7
2017-May-19 22:24N 55°11' E 013°47'4 9.0
2017-May-19 22:00N 55°11' E 013°40'4 8.6
2017-May-19 21:30N 55°12' E 013°33'4 8.7
2017-May-19 21:00N 55°12' E 013°26'4 8.7
2017-May-19 20:30N 55°13' E 013°18'4 8.8
2017-May-19 20:01N 55°13' E 013°10'5 8.8
2017-May-19 19:29N 55°14' E 013°02'4 8.8
2017-May-19 19:00N 55°14' E 012°55'4 8.8
2017-May-19 18:31N 55°16' E 012°48'4 8.9
2017-May-19 18:00N 55°17' E 012°41'3 6.4
2017-May-19 17:30N 55°20' E 012°38'4 8.5
2017-May-19 17:00N 55°24' E 012°39'510.6
2017-May-19 16:31N 55°29' E 012°42'5 9.6
2017-May-19 16:01N 55°33' E 012°48'510.6
2017-May-19 15:31N 55°37' E 012°54'611.6
2017-May-19 15:00N 55°43' E 012°53'1413.8
2017-May-19 14:01N 55°56' E 012°43'714.1
2017-May-19 13:31N 56°02' E 012°39'713.4
2017-May-19 13:00N 56°07' E 012°31'4 8.1
2017-May-19 12:30N 56°10' E 012°25'5 9.6
2017-May-19 12:00N 56°12' E 012°18'13 8.3
2017-May-19 10:23N 56°22' E 012°01'511.1
2017-May-19 09:57N 56°27' E 011°59'611.1
2017-May-19 09:26N 56°32' E 011°57'611.3
2017-May-19 08:57N 56°38' E 011°55'511.2
2017-May-19 08:30N 56°42' E 011°53'611.2
2017-May-19 08:00N 56°48' E 011°50'611.0
2017-May-19 07:30N 56°53' E 011°47'611.1
2017-May-19 07:00N 56°58' E 011°43'611.4
2017-May-19 06:28N 57°04' E 011°40'511.2
2017-May-19 05:59N 57°09' E 011°36'510.8
2017-May-19 05:30N 57°14' E 011°33'510.8
2017-May-19 05:00N 57°19' E 011°29'611.1
2017-May-19 04:30N 57°24' E 011°25'611.2
2017-May-19 04:00N 57°29' E 011°20'510.9
2017-May-19 03:30N 57°33' E 011°13'511.0
2017-May-19 03:00N 57°37' E 011°06'511.0
2017-May-19 02:30N 57°40' E 010°59'510.8
2017-May-19 02:00N 57°44' E 010°51'510.2
2017-May-19 01:30N 57°47' E 010°43'510.4
2017-May-19 01:00N 57°47' E 010°34'611.2
2017-May-19 00:30N 57°47' E 010°23'611.2
2017-May-18 23:57N 57°46' E 010°12'511.2
2017-May-18 23:30N 57°46' E 010°02'611.3
2017-May-18 23:00N 57°45' E 009°52'611.0
2017-May-18 22:29N 57°44' E 009°41'511.0
2017-May-18 22:00N 57°42' E 009°32'38910.8
2017-May-17 10:06N 52°18' E 003°17'611.8
2017-May-17 09:38N 52°13' E 003°20'111.6
2017-May-17 09:30N 52°12' E 003°22'611.6
2017-May-17 09:00N 52°09' E 003°30'611.8
2017-May-17 08:30N 52°06' E 003°38'612.0
2017-May-17 08:00N 52°04' E 003°48'4 8.9
2017-May-17 07:30N 52°03' E 003°54'612.2
2017-May-17 07:00N 51°59' E 004°03'4 7.6
2017-May-17 06:31N 51°57' E 004°08'0 0.1
2017-May-17 05:57N 51°57' E 004°08'0 0.0
2017-May-17 05:28N 51°57' E 004°08'0 0.0
2017-May-17 04:58N 51°57' E 004°08'0 0.0
2017-May-17 04:30N 51°57' E 004°08'0 0.0
2017-May-17 04:00N 51°57' E 004°08'0 0.0
2017-May-17 03:30N 51°57' E 004°08'0 0.0
2017-May-17 03:00N 51°57' E 004°08'0 0.0
2017-May-17 02:28N 51°57' E 004°08'0 0.0
2017-May-17 02:00N 51°57' E 004°08'0 0.0
2017-May-17 01:30N 51°57' E 004°08'0 0.0
2017-May-17 01:00N 51°57' E 004°08'0 0.0
2017-May-17 00:30N 51°57' E 004°08'0 0.0
2017-May-17 00:00N 51°57' E 004°08'0 0.0
2017-May-16 23:30N 51°57' E 004°08'0 0.0
2017-May-16 23:00N 51°57' E 004°08'0 0.0
2017-May-16 22:30N 51°57' E 004°08'0 0.0
2017-May-16 22:00N 51°57' E 004°08'0 0.0
2017-May-16 21:27N 51°57' E 004°08'0 0.0
2017-May-16 21:00N 51°57' E 004°08'0 0.0
2017-May-16 20:30N 51°57' E 004°08'0 0.0
2017-May-16 19:58N 51°57' E 004°08'0 0.0
2017-May-16 19:30N 51°57' E 004°08'0 0.0
2017-May-16 19:00N 51°57' E 004°08'0 0.0
2017-May-16 18:30N 51°57' E 004°08'0 0.0
2017-May-16 18:00N 51°57' E 004°08'0 0.0
2017-May-16 17:30N 51°57' E 004°08'0 0.0
2017-May-16 17:00N 51°57' E 004°08'0 0.0
2017-May-16 16:30N 51°57' E 004°08'0 0.0
2017-May-16 16:00N 51°57' E 004°08'0 0.0
2017-May-16 15:30N 51°57' E 004°08'0 0.0
2017-May-16 15:00N 51°57' E 004°08'0 0.0
2017-May-16 14:30N 51°57' E 004°08'0 0.0
2017-May-16 13:30N 51°57' E 004°08'0 0.0
2017-May-16 13:00N 51°57' E 004°08'0 0.0
2017-May-16 12:28N 51°57' E 004°08'0 0.0
2017-May-16 12:00N 51°57' E 004°08'0 0.0
2017-May-16 11:30N 51°57' E 004°08'0 0.0
2017-May-16 11:00N 51°57' E 004°08'0 0.0
2017-May-16 10:30N 51°57' E 004°08'0 0.0
2017-May-16 10:00N 51°57' E 004°08'0 0.0
2017-May-16 09:30N 51°57' E 004°08'0 0.0
2017-May-16 09:00N 51°57' E 004°08'0 0.0
2017-May-16 08:30N 51°57' E 004°08'0 0.0
2017-May-16 08:00N 51°57' E 004°08'0 0.0
2017-May-16 07:30N 51°57' E 004°08'0 0.0
2017-May-16 07:00N 51°57' E 004°08'0 0.0
2017-May-16 06:24N 51°57' E 004°08'0 0.0
2017-May-16 06:00N 51°57' E 004°08'0 0.0
2017-May-16 05:30N 51°57' E 004°08'0 0.0
2017-May-16 05:00N 51°57' E 004°08'0 0.0
2017-May-16 04:30N 51°57' E 004°08'0 0.0
2017-May-16 04:00N 51°57' E 004°08'0 0.0
2017-May-16 03:30N 51°57' E 004°08'0 0.0
2017-May-16 03:00N 51°57' E 004°08'0 0.0
2017-May-16 02:30N 51°57' E 004°08'0 0.0
2017-May-16 02:00N 51°57' E 004°08'0 0.0
2017-May-16 01:30N 51°57' E 004°08'0 0.0
2017-May-16 01:00N 51°57' E 004°08'0 0.0
2017-May-16 00:30N 51°57' E 004°08'0 0.0
2017-May-16 00:00N 51°57' E 004°08'0 0.0
2017-May-15 23:30N 51°57' E 004°08'0 0.0
2017-May-15 22:58N 51°57' E 004°08'0 0.0
2017-May-15 22:30N 51°57' E 004°08'0 0.0
2017-May-15 22:00N 51°57' E 004°08'0 0.0
2017-May-15 21:30N 51°57' E 004°08'0 0.0
2017-May-15 21:00N 51°57' E 004°08'0 0.0
2017-May-15 20:30N 51°57' E 004°08'0 0.1
2017-May-15 20:00N 51°57' E 004°08'1 1.6
2017-May-15 19:30N 51°58' E 004°07'3 5.6
2017-May-15 19:00N 51°59' E 004°03'510.1
2017-May-15 18:30N 52°01' E 003°55'5 9.7
2017-May-15 18:00N 52°00' E 003°47'4 8.4
2017-May-15 17:30N 52°02' E 003°41'3 5.8
2017-May-15 17:00N 52°04' E 003°38'4 7.7
2017-May-15 16:30N 52°08' E 003°39'1 1.4
2017-May-15 15:47N 52°09' E 003°37'0 0.0
2017-May-15 15:29N 52°09' E 003°37'0 0.0
2017-May-15 14:56N 52°09' E 003°37'0 0.1
2017-May-15 13:02N 52°08' E 003°37'0 0.0
2017-May-15 12:59N 52°08' E 003°37'0 0.0
2017-May-15 11:59N 52°08' E 003°37'0 0.0
2017-May-15 10:23N 52°08' E 003°37'0 0.0
2017-May-15 09:59N 52°08' E 003°37'0 0.2
2017-May-15 09:23N 52°08' E 003°37'0 0.5
2017-May-15 08:59N 52°09' E 003°37'0 0.1
2017-May-15 08:29N 52°09' E 003°37'0 0.0
2017-May-15 07:56N 52°09' E 003°37'0 0.0
2017-May-15 07:20N 52°09' E 003°37'0 0.0
2017-May-15 06:59N 52°09' E 003°37'0 0.0
2017-May-15 06:23N 52°09' E 003°37'0 0.0
2017-May-15 05:50N 52°09' E 003°37'0 0.0
2017-May-15 05:26N 52°09' E 003°37'0 0.0
2017-May-15 04:59N 52°09' E 003°37'0 0.0
2017-May-15 04:23N 52°09' E 003°37'0 0.0
2017-May-15 03:59N 52°09' E 003°37'0 0.0
2017-May-15 03:26N 52°09' E 003°37'0 0.0
2017-May-15 02:59N 52°09' E 003°37'0 0.0
2017-May-15 02:29N 52°09' E 003°37'0 0.3
2017-May-15 01:56N 52°08' E 003°37'0 0.2
2017-May-15 01:29N 52°08' E 003°37'0 0.1
2017-May-15 00:56N 52°08' E 003°37'0 0.1
2017-May-15 00:26N 52°08' E 003°37'0 0.0
2017-May-14 23:59N 52°08' E 003°37'0 0.0
2017-May-14 23:29N 52°08' E 003°37'0 0.0
2017-May-14 22:59N 52°08' E 003°37'0 0.0
2017-May-14 22:26N 52°08' E 003°37'0 0.0
2017-May-14 21:59N 52°08' E 003°37'0 0.2
2017-May-14 21:29N 52°08' E 003°37'0 0.4
2017-May-14 20:56N 52°08' E 003°37'0 0.2
2017-May-14 20:29N 52°09' E 003°37'0 0.1
2017-May-14 19:59N 52°09' E 003°37'0 0.0
2017-May-14 19:29N 52°09' E 003°37'0 0.0
2017-May-14 18:59N 52°09' E 003°37'0 0.0
2017-May-14 18:29N 52°09' E 003°37'0 0.0
2017-May-14 17:59N 52°09' E 003°37'0 0.0
2017-May-14 17:29N 52°09' E 003°37'0 0.0
2017-May-14 16:59N 52°09' E 003°37'0 0.0
2017-May-14 16:29N 52°09' E 003°37'0 0.0
2017-May-14 15:59N 52°09' E 003°37'0 0.0
2017-May-14 15:26N 52°09' E 003°37'0 0.0
2017-May-14 14:59N 52°09' E 003°37'0 0.0
2017-May-14 14:29N 52°09' E 003°37'0 0.1
2017-May-14 12:11N 52°08' E 003°37'0 0.0
2017-May-14 08:47N 52°09' E 003°37'0 0.3
2017-May-14 08:17N 52°09' E 003°37'0 0.1
2017-May-14 07:47N 52°09' E 003°37'0 0.0
2017-May-14 07:14N 52°09' E 003°37'0 0.0
2017-May-14 06:53N 52°09' E 003°37'0 0.0
2017-May-14 06:14N 52°09' E 003°37'0 0.0
2017-May-14 05:59N 52°09' E 003°37'0 0.0
2017-May-14 05:29N 52°09' E 003°37'  
Track history (hours):
 
Tides and Currents Weather Stations Pressure Air Temp Water Temp Dewpoint Dewpoint Depression Visibility Wind Speed Wind Dir Waves Ship Positions

Pelagos

Last reported at 2017-May-24 05:28 UTC. Time now 2017-May-24 05:58 UTC.
Position N 60°05' E 027°21'.

Length 249 m; draft 14 m.

Type: Ship (hazmat cat C). MMSI: 240335000.

Date/timePositionNaut miles runAvg speedWind from/ knotsBaromVisibWave heightAir tempDewpointWater temp
2017-May-24 05:28N 60°05' E 027°21'612.0
2017-May-24 04:59N 60°08' E 027°31'811.8
2017-May-24 04:19N 60°12' E 027°45'411.5
2017-May-24 04:00N 60°11' E 027°52'612.3
2017-May-24 03:30N 60°10' E 028°04'612.2
2017-May-24 03:00N 60°08' E 028°16'611.5
2017-May-24 02:30N 60°08' E 028°27'612.2
2017-May-24 02:00N 60°10' E 028°39'4 7.3
2017-May-24 01:30N 60°12' E 028°45'5 9.1
2017-May-24 00:59N 60°17' E 028°46'4 7.5
2017-May-24 00:30N 60°20' E 028°42'0 0.0
2017-May-22 22:14N 60°20' E 028°41'1 4.8
2017-May-22 22:00N 60°19' E 028°43'4 8.9
2017-May-22 21:30N 60°16' E 028°48'5 9.0
2017-May-22 21:00N 60°11' E 028°44'713.5
2017-May-22 20:31N 60°08' E 028°33'611.6
2017-May-22 20:00N 60°05' E 028°23'4 7.4
2017-May-22 19:30N 60°07' E 028°16'4 8.6
2017-May-22 19:01N 60°08' E 028°08'4 8.5
2017-May-22 18:31N 60°09' E 027°59'4 8.6
2017-May-22 18:00N 60°10' E 027°51'4 8.3
2017-May-22 17:30N 60°10' E 027°43'4 8.8
2017-May-22 17:01N 60°07' E 027°35'5 8.9
2017-May-22 16:30N 60°05' E 027°27'4 7.7
2017-May-22 16:00N 60°03' E 027°21'3 6.4
2017-May-22 15:31N 60°02' E 027°15'3 6.4
2017-May-22 15:00N 59°60' E 027°10'6 5.9
2017-May-22 14:00N 59°58' E 026°59'3 6.3
2017-May-22 13:30N 59°59' E 026°52'3 6.2
2017-May-22 13:01N 59°59' E 026°46'3 6.3
2017-May-22 12:31N 59°59' E 026°40'3 6.6
2017-May-22 12:00N 59°59' E 026°34'4 8.9
2017-May-22 11:31N 59°57' E 026°25'5 9.1
2017-May-22 11:00N 59°56' E 026°16'5 9.0
2017-May-22 10:26N 59°55' E 026°06'4 9.0
2017-May-22 10:00N 59°54' E 025°59'4 9.0
2017-May-22 09:31N 59°53' E 025°50'5 9.1
2017-May-22 09:00N 59°51' E 025°42'6 9.1
2017-May-22 08:22N 59°50' E 025°30'3 9.1
2017-May-22 08:00N 59°50' E 025°24'8 9.3
2017-May-22 07:06N 59°48' E 025°07'4 9.2
2017-May-22 06:41N 59°47' E 024°60'17 7.7
2017-May-22 04:25N 59°44' E 024°26'4 8.9
2017-May-22 03:59N 59°43' E 024°19'5 9.1
2017-May-22 03:25N 59°41' E 024°09'4 9.3
2017-May-22 03:00N 59°40' E 024°02'4 8.9
2017-May-22 02:31N 59°38' E 023°54'5 9.0
2017-May-22 02:00N 59°37' E 023°45'5 9.2
2017-May-22 01:31N 59°35' E 023°37'5 9.5
2017-May-22 01:01N 59°33' E 023°28'5 9.3
2017-May-22 00:31N 59°32' E 023°20'5 9.3
2017-May-22 00:01N 59°30' E 023°11'5 9.3
2017-May-21 23:30N 59°29' E 023°02'5 9.5
2017-May-21 23:01N 59°27' E 022°53'5 9.4
2017-May-21 22:30N 59°26' E 022°45'5 9.3
2017-May-21 22:01N 59°24' E 022°37'5 9.3
2017-May-21 21:31N 59°21' E 022°29'14 8.9
2017-May-21 19:55N 59°13' E 022°07'194 8.4
2017-May-20 20:50N 56°27' E 018°57'4 8.6
2017-May-20 20:20N 56°23' E 018°54'10 8.4
2017-May-20 19:08N 56°16' E 018°41'1 8.9
2017-May-20 18:59N 56°15' E 018°39'35 8.7
2017-May-20 14:57N 55°57' E 017°45'4 8.5
2017-May-20 14:31N 55°55' E 017°39'13 8.6
2017-May-20 12:58N 55°52' E 017°16'4 8.8
2017-May-20 12:31N 55°51' E 017°09'4 8.8
2017-May-20 12:00N 55°49' E 017°02'4 9.0
2017-May-20 11:31N 55°48' E 016°54'4 8.9
2017-May-20 11:01N 55°47' E 016°46'4 8.7
2017-May-20 10:31N 55°46' E 016°39'4 8.8
2017-May-20 10:01N 55°45' E 016°31'4 8.8
2017-May-20 09:31N 55°44' E 016°24'4 8.7
2017-May-20 09:01N 55°43' E 016°16'4 8.9
2017-May-20 08:31N 55°42' E 016°09'4 8.8
2017-May-20 08:01N 55°41' E 016°01'4 8.8
2017-May-20 07:31N 55°40' E 015°54'4 8.8
2017-May-20 07:00N 55°39' E 015°46'4 8.7
2017-May-20 06:31N 55°37' E 015°39'4 8.9
2017-May-20 06:01N 55°36' E 015°31'4 8.9
2017-May-20 05:31N 55°34' E 015°24'4 8.9
2017-May-20 05:01N 55°33' E 015°16'4 8.8
2017-May-20 04:31N 55°31' E 015°09'4 8.9
2017-May-20 04:01N 55°30' E 015°02'4 8.8
2017-May-20 03:31N 55°28' E 014°55'4 8.6
2017-May-20 03:00N 55°26' E 014°48'4 8.4
2017-May-20 02:30N 55°24' E 014°41'4 8.5
2017-May-20 02:01N 55°21' E 014°36'5 9.1
2017-May-20 01:30N 55°18' E 014°30'5 9.6
2017-May-20 01:00N 55°14' E 014°25'5 9.7
2017-May-20 00:31N 55°11' E 014°19'5 8.9
2017-May-20 00:00N 55°10' E 014°12'5 9.1
2017-May-19 23:26N 55°10' E 014°03'4 8.9
2017-May-19 23:00N 55°10' E 013°56'5 8.7
2017-May-19 22:24N 55°11' E 013°47'4 9.0
2017-May-19 22:00N 55°11' E 013°40'4 8.6
2017-May-19 21:30N 55°12' E 013°33'4 8.7
2017-May-19 21:00N 55°12' E 013°26'4 8.7
2017-May-19 20:30N 55°13' E 013°18'4 8.8
2017-May-19 20:01N 55°13' E 013°10'5 8.8
2017-May-19 19:29N 55°14' E 013°02'4 8.8
2017-May-19 19:00N 55°14' E 012°55'4 8.8
2017-May-19 18:31N 55°16' E 012°48'4 8.9
2017-May-19 18:00N 55°17' E 012°41'3 6.4
2017-May-19 17:30N 55°20' E 012°38'4 8.5
2017-May-19 17:00N 55°24' E 012°39'510.6
2017-May-19 16:31N 55°29' E 012°42'5 9.6
2017-May-19 16:01N 55°33' E 012°48'510.6
2017-May-19 15:31N 55°37' E 012°54'611.6
2017-May-19 15:00N 55°43' E 012°53'1413.8
2017-May-19 14:01N 55°56' E 012°43'714.1
2017-May-19 13:31N 56°02' E 012°39'713.4
2017-May-19 13:00N 56°07' E 012°31'4 8.1
2017-May-19 12:30N 56°10' E 012°25'5 9.6
2017-May-19 12:00N 56°12' E 012°18'13 8.3
2017-May-19 10:23N 56°22' E 012°01'511.1
2017-May-19 09:57N 56°27' E 011°59'611.1
2017-May-19 09:26N 56°32' E 011°57'611.3
2017-May-19 08:57N 56°38' E 011°55'511.2
2017-May-19 08:30N 56°42' E 011°53'611.2
2017-May-19 08:00N 56°48' E 011°50'611.0
2017-May-19 07:30N 56°53' E 011°47'611.1
2017-May-19 07:00N 56°58' E 011°43'611.4
2017-May-19 06:28N 57°04' E 011°40'511.2
2017-May-19 05:59N 57°09' E 011°36'510.8
2017-May-19 05:30N 57°14' E 011°33'510.8
2017-May-19 05:00N 57°19' E 011°29'611.1
2017-May-19 04:30N 57°24' E 011°25'611.2
2017-May-19 04:00N 57°29' E 011°20'510.9
2017-May-19 03:30N 57°33' E 011°13'511.0
2017-May-19 03:00N 57°37' E 011°06'511.0
2017-May-19 02:30N 57°40' E 010°59'510.8
2017-May-19 02:00N 57°44' E 010°51'510.2
2017-May-19 01:30N 57°47' E 010°43'510.4
2017-May-19 01:00N 57°47' E 010°34'611.2
2017-May-19 00:30N 57°47' E 010°23'611.2
2017-May-18 23:57N 57°46' E 010°12'511.2
2017-May-18 23:30N 57°46' E 010°02'611.3
2017-May-18 23:00N 57°45' E 009°52'611.0
2017-May-18 22:29N 57°44' E 009°41'511.0
2017-May-18 22:00N 57°42' E 009°32'38910.8
2017-May-17 10:06N 52°18' E 003°17'611.8
2017-May-17 09:38N 52°13' E 003°20'111.6
2017-May-17 09:30N 52°12' E 003°22'611.6
2017-May-17 09:00N 52°09' E 003°30'611.8
2017-May-17 08:30N 52°06' E 003°38'612.0
2017-May-17 08:00N 52°04' E 003°48'4 8.9
2017-May-17 07:30N 52°03' E 003°54'612.2
2017-May-17 07:00N 51°59' E 004°03'4 7.6
2017-May-17 06:31N 51°57' E 004°08'0 0.1
2017-May-17 05:57N 51°57' E 004°08'0 0.0
2017-May-17 05:28N 51°57' E 004°08'0 0.0
2017-May-17 04:58N 51°57' E 004°08'0 0.0
2017-May-17 04:30N 51°57' E 004°08'0 0.0
2017-May-17 04:00N 51°57' E 004°08'0 0.0
2017-May-17 03:30N 51°57' E 004°08'0 0.0
2017-May-17 03:00N 51°57' E 004°08'0 0.0
2017-May-17 02:28N 51°57' E 004°08'0 0.0
2017-May-17 02:00N 51°57' E 004°08'0 0.0
2017-May-17 01:30N 51°57' E 004°08'0 0.0
2017-May-17 01:00N 51°57' E 004°08'0 0.0
2017-May-17 00:30N 51°57' E 004°08'0 0.0
2017-May-17 00:00N 51°57' E 004°08'0 0.0
2017-May-16 23:30N 51°57' E 004°08'0 0.0
2017-May-16 23:00N 51°57' E 004°08'0 0.0
2017-May-16 22:30N 51°57' E 004°08'0 0.0
2017-May-16 22:00N 51°57' E 004°08'0 0.0
2017-May-16 21:27N 51°57' E 004°08'0 0.0
2017-May-16 21:00N 51°57' E 004°08'0 0.0
2017-May-16 20:30N 51°57' E 004°08'0 0.0
2017-May-16 19:58N 51°57' E 004°08'0 0.0
2017-May-16 19:30N 51°57' E 004°08'0 0.0
2017-May-16 19:00N 51°57' E 004°08'0 0.0
2017-May-16 18:30N 51°57' E 004°08'0 0.0
2017-May-16 18:00N 51°57' E 004°08'0 0.0
2017-May-16 17:30N 51°57' E 004°08'0 0.0
2017-May-16 17:00N 51°57' E 004°08'0 0.0
2017-May-16 16:30N 51°57' E 004°08'0 0.0
2017-May-16 16:00N 51°57' E 004°08'0 0.0
2017-May-16 15:30N 51°57' E 004°08'0 0.0
2017-May-16 15:00N 51°57' E 004°08'0 0.0
2017-May-16 14:30N 51°57' E 004°08'0 0.0
2017-May-16 13:30N 51°57' E 004°08'0 0.0
2017-May-16 13:00N 51°57' E 004°08'0 0.0
2017-May-16 12:28N 51°57' E 004°08'0 0.0
2017-May-16 12:00N 51°57' E 004°08'0 0.0
2017-May-16 11:30N 51°57' E 004°08'0 0.0
2017-May-16 11:00N 51°57' E 004°08'0 0.0
2017-May-16 10:30N 51°57' E 004°08'0 0.0
2017-May-16 10:00N 51°57' E 004°08'0 0.0
2017-May-16 09:30N 51°57' E 004°08'0 0.0
2017-May-16 09:00N 51°57' E 004°08'0 0.0
2017-May-16 08:30N 51°57' E 004°08'0 0.0
2017-May-16 08:00N 51°57' E 004°08'0 0.0
2017-May-16 07:30N 51°57' E 004°08'0 0.0
2017-May-16 07:00N 51°57' E 004°08'0 0.0
2017-May-16 06:24N 51°57' E 004°08'0 0.0
2017-May-16 06:00N 51°57' E 004°08'0 0.0
2017-May-16 05:30N 51°57' E 004°08'0 0.0
2017-May-16 05:00N 51°57' E 004°08'0 0.0
2017-May-16 04:30N 51°57' E 004°08'0 0.0
2017-May-16 04:00N 51°57' E 004°08'0 0.0
2017-May-16 03:30N 51°57' E 004°08'0 0.0
2017-May-16 03:00N 51°57' E 004°08'0 0.0
2017-May-16 02:30N 51°57' E 004°08'0 0.0
2017-May-16 02:00N 51°57' E 004°08'0 0.0
2017-May-16 01:30N 51°57' E 004°08'0 0.0
2017-May-16 01:00N 51°57' E 004°08'0 0.0
2017-May-16 00:30N 51°57' E 004°08'0 0.0
2017-May-16 00:00N 51°57' E 004°08'0 0.0
2017-May-15 23:30N 51°57' E 004°08'0 0.0
2017-May-15 22:58N 51°57' E 004°08'0 0.0
2017-May-15 22:30N 51°57' E 004°08'0 0.0
2017-May-15 22:00N 51°57' E 004°08'0 0.0
2017-May-15 21:30N 51°57' E 004°08'0 0.0
2017-May-15 21:00N 51°57' E 004°08'0 0.0
2017-May-15 20:30N 51°57' E 004°08'0 0.1
2017-May-15 20:00N 51°57' E 004°08'1 1.6
2017-May-15 19:30N 51°58' E 004°07'3 5.6
2017-May-15 19:00N 51°59' E 004°03'510.1
2017-May-15 18:30N 52°01' E 003°55'5 9.7
2017-May-15 18:00N 52°00' E 003°47'4 8.4
2017-May-15 17:30N 52°02' E 003°41'3 5.8
2017-May-15 17:00N 52°04' E 003°38'4 7.7
2017-May-15 16:30N 52°08' E 003°39'1 1.4
2017-May-15 15:47N 52°09' E 003°37'0 0.0
2017-May-15 15:29N 52°09' E 003°37'0 0.0
2017-May-15 14:56N 52°09' E 003°37'0 0.1
2017-May-15 13:02N 52°08' E 003°37'0 0.0
2017-May-15 12:59N 52°08' E 003°37'0 0.0
2017-May-15 11:59N 52°08' E 003°37'0 0.0
2017-May-15 10:23N 52°08' E 003°37'0 0.0
2017-May-15 09:59N 52°08' E 003°37'0 0.2
2017-May-15 09:23N 52°08' E 003°37'0 0.5
2017-May-15 08:59N 52°09' E 003°37'0 0.1
2017-May-15 08:29N 52°09' E 003°37'0 0.0
2017-May-15 07:56N 52°09' E 003°37'0 0.0
2017-May-15 07:20N 52°09' E 003°37'0 0.0
2017-May-15 06:59N 52°09' E 003°37'0 0.0
2017-May-15 06:23N 52°09' E 003°37'0 0.0
2017-May-15 05:50N 52°09' E 003°37'0 0.0
2017-May-15 05:26N 52°09' E 003°37'0 0.0
2017-May-15 04:59N 52°09' E 003°37'0 0.0
2017-May-15 04:23N 52°09' E 003°37'0 0.0
2017-May-15 03:59N 52°09' E 003°37'0 0.0
2017-May-15 03:26N 52°09' E 003°37'0 0.0
2017-May-15 02:59N 52°09' E 003°37'0 0.0
2017-May-15 02:29N 52°09' E 003°37'0 0.3
2017-May-15 01:56N 52°08' E 003°37'0 0.2
2017-May-15 01:29N 52°08' E 003°37'0 0.1
2017-May-15 00:56N 52°08' E 003°37'0 0.1
2017-May-15 00:26N 52°08' E 003°37'0 0.0
2017-May-14 23:59N 52°08' E 003°37'0 0.0
2017-May-14 23:29N 52°08' E 003°37'0 0.0
2017-May-14 22:59N 52°08' E 003°37'0 0.0
2017-May-14 22:26N 52°08' E 003°37'0 0.0
2017-May-14 21:59N 52°08' E 003°37'0 0.2
2017-May-14 21:29N 52°08' E 003°37'0 0.4
2017-May-14 20:56N 52°08' E 003°37'0 0.2
2017-May-14 20:29N 52°09' E 003°37'0 0.1
2017-May-14 19:59N 52°09' E 003°37'0 0.0
2017-May-14 19:29N 52°09' E 003°37'0 0.0
2017-May-14 18:59N 52°09' E 003°37'0 0.0
2017-May-14 18:29N 52°09' E 003°37'0 0.0
2017-May-14 17:59N 52°09' E 003°37'0 0.0
2017-May-14 17:29N 52°09' E 003°37'0 0.0
2017-May-14 16:59N 52°09' E 003°37'0 0.0
2017-May-14 16:29N 52°09' E 003°37'0 0.0
2017-May-14 15:59N 52°09' E 003°37'0 0.0
2017-May-14 15:26N 52°09' E 003°37'0 0.0
2017-May-14 14:59N 52°09' E 003°37'0 0.0
2017-May-14 14:29N 52°09' E 003°37'0 0.1
2017-May-14 12:11N 52°08' E 003°37'0 0.0
2017-May-14 08:47N 52°09' E 003°37'0 0.3
2017-May-14 08:17N 52°09' E 003°37'0 0.1
2017-May-14 07:47N 52°09' E 003°37'0 0.0
2017-May-14 07:14N 52°09' E 003°37'0 0.0
2017-May-14 06:53N 52°09' E 003°37'0 0.0
2017-May-14 06:14N 52°09' E 003°37'0 0.0
2017-May-14 05:59N 52°09' E 003°37'0 0.0
2017-May-14 05:29N 52°09' E 003°37'  

Dump ship's entire track history